Time;durP1;ratioP1;P1;durP2;ratioP2;P2;SDS_P1;SDS_P2;PMS_P1;PMS_P2;Temp;Humidity;BMP_temperature;BMP_pressure;BME280_temperature;BME280_humidity;BME280_pressure;Samples;Min_cycle;Max_cycle;Signal;HPM_P1;HPM_P2
2022/08/09 00:00:01;;;;;;;7.27;5.47;;;14.20;45.80;;;;;;5063035;28;48043;-68
2022/08/09 00:02:27;;;;;;;7.23;5.73;;;14.10;46.20;;;;;;5063350;28;45826;-68
2022/08/09 00:04:53;;;;;;;8.80;5.83;;;14.10;46.60;;;;;;5062916;28;46432;-67
2022/08/09 00:07:19;;;;;;;11.17;5.77;;;14.00;46.80;;;;;;5062870;28;45836;-68
2022/08/09 00:09:44;;;;;;;8.50;6.00;;;13.90;47.00;;;;;;5063399;28;47133;-68
2022/08/09 00:12:10;;;;;;;9.90;6.13;;;13.90;47.30;;;;;;5062597;28;46578;-68
2022/08/09 00:14:36;;;;;;;8.50;5.67;;;13.90;47.30;;;;;;5064528;28;46512;-68
2022/08/09 00:17:02;;;;;;;7.03;5.90;;;13.90;47.30;;;;;;5061258;28;46516;-68
2022/08/09 00:19:28;;;;;;;12.87;6.37;;;13.80;47.30;;;;;;5062828;28;46339;-68
2022/08/09 00:21:53;;;;;;;7.80;5.97;;;13.80;47.40;;;;;;5062573;28;46433;-68
2022/08/09 00:24:19;;;;;;;7.97;6.30;;;13.70;47.60;;;;;;5063646;28;46307;-68
2022/08/09 00:26:45;;;;;;;7.03;5.40;;;13.70;47.90;;;;;;5062137;28;46520;-68
2022/08/09 00:29:10;;;;;;;6.70;5.40;;;13.60;48.00;;;;;;5061000;28;46475;-68
2022/08/09 00:31:36;;;;;;;6.97;5.67;;;13.60;48.20;;;;;;5062227;28;45798;-68
2022/08/09 00:34:02;;;;;;;8.57;5.60;;;13.50;47.20;;;;;;5063224;28;46440;-68
2022/08/09 00:36:28;;;;;;;7.00;5.87;;;13.50;48.20;;;;;;5063346;28;46363;-67
2022/08/09 00:38:53;;;;;;;6.60;5.13;;;13.40;48.00;;;;;;5062209;28;48085;-68
2022/08/09 00:41:21;;;;;;;7.53;5.83;;;13.40;48.20;;;;;;5062084;28;46380;-68
2022/08/09 00:43:48;;;;;;;6.70;5.83;;;13.40;48.20;;;;;;5062829;28;46376;-68
2022/08/09 00:46:14;;;;;;;12.30;5.77;;;13.40;47.20;;;;;;5062309;28;46327;-67
2022/08/09 00:48:39;;;;;;;9.73;5.47;;;13.40;48.20;;;;;;5062305;28;46610;-68
2022/08/09 00:51:08;;;;;;;10.33;6.73;;;13.40;48.10;;;;;;5061148;28;46350;-68
2022/08/09 00:53:35;;;;;;;6.60;5.57;;;13.40;48.00;;;;;;5062200;28;46443;-67
2022/08/09 00:56:02;;;;;;;8.93;5.77;;;13.40;47.30;;;;;;5063295;28;46338;-68
2022/08/09 00:58:30;;;;;;;9.47;6.77;;;13.40;48.30;;;;;;5061187;28;47459;-67
2022/08/09 01:00:56;;;;;;;7.00;6.30;;;13.40;49.50;;;;;;5061480;28;46383;-68
2022/08/09 01:03:46;;;;;;;6.20;5.40;;;13.40;48.40;;;;;;5064013;28;46343;-67
2022/08/09 01:06:15;;;;;;;7.37;6.07;;;13.30;47.50;;;;;;5059845;28;46545;-66
2022/08/09 01:08:45;;;;;;;9.00;6.57;;;13.30;48.40;;;;;;5060873;28;46605;-67
2022/08/09 01:11:27;;;;;;;7.17;5.93;;;13.30;49.60;;;;;;5061360;28;46433;-66
2022/08/09 01:14:01;;;;;;;9.93;7.07;;;13.30;48.40;;;;;;5061788;28;46404;-67
2022/08/09 01:16:31;;;;;;;7.40;6.20;;;13.30;48.30;;;;;;5061289;28;46561;-68
2022/08/09 01:19:01;;;;;;;7.00;5.73;;;13.30;48.30;;;;;;5062207;28;46192;-67
2022/08/09 01:21:44;;;;;;;10.37;6.30;;;13.20;49.50;;;;;;5060749;28;46363;-67
2022/08/09 01:24:33;;;;;;;6.53;5.70;;;13.20;47.90;;;;;;5062224;28;46425;-67
2022/08/09 01:27:10;;;;;;;8.77;6.30;;;13.20;48.80;;;;;;5061585;28;46410;-67
2022/08/09 01:29:44;;;;;;;7.37;6.10;;;13.20;48.90;;;;;;5061110;28;46439;-67
2022/08/09 01:32:13;;;;;;;7.53;6.27;;;13.20;49.00;;;;;;5062406;28;46501;-67
2022/08/09 01:34:42;;;;;;;8.73;5.90;;;13.00;48.30;;;;;;5058519;28;45841;-67
2022/08/09 01:37:11;;;;;;;14.17;6.13;;;13.00;49.30;;;;;;5057880;28;46549;-68
2022/08/09 01:39:39;;;;;;;8.13;6.20;;;13.00;49.50;;;;;;5060835;28;46438;-68
2022/08/09 01:42:07;;;;;;;9.60;6.63;;;12.90;49.70;;;;;;5059998;28;46401;-68
2022/08/09 01:44:33;;;;;;;12.00;6.07;;;12.90;50.00;;;;;;5061250;28;45943;-67
2022/08/09 01:47:02;;;;;;;7.90;6.10;;;12.90;50.00;;;;;;5060869;28;46352;-68
2022/08/09 01:49:32;;;;;;;8.20;6.37;;;12.80;50.00;;;;;;5061590;28;46566;-68
2022/08/09 01:52:02;;;;;;;11.60;6.97;;;12.80;50.00;;;;;;5063148;28;46374;-67
2022/08/09 01:54:37;;;;;;;8.90;7.13;;;12.80;49.30;;;;;;5061460;28;46405;-67
2022/08/09 01:57:10;;;;;;;9.67;6.80;;;12.80;50.20;;;;;;5058248;28;46739;-67
2022/08/09 01:59:40;;;;;;;7.83;6.67;;;12.80;50.30;;;;;;5062339;28;46046;-67
2022/08/09 02:02:08;;;;;;;8.03;6.70;;;12.80;50.30;;;;;;5059330;28;46341;-67
2022/08/09 02:04:37;;;;;;;9.70;7.63;;;12.70;49.40;;;;;;5060444;28;46440;-67
2022/08/09 02:07:15;;;;;;;10.03;7.87;;;12.70;50.50;;;;;;5059002;28;46528;-67
2022/08/09 02:09:55;;;;;;;13.10;8.13;;;12.70;50.50;;;;;;5060942;28;46184;-67
2022/08/09 02:12:21;;;;;;;9.43;7.90;;;12.70;50.90;;;;;;5060994;28;46589;-67
2022/08/09 02:14:49;;;;;;;9.10;7.97;;;12.70;50.80;;;;;;5060605;28;46427;-67
2022/08/09 02:17:18;;;;;;;11.37;8.30;;;12.70;51.10;;;;;;5060066;28;46014;-67
2022/08/09 02:19:44;;;;;;;9.23;7.90;;;12.60;51.10;;;;;;5061164;28;46544;-68
2022/08/09 02:22:19;;;;;;;10.20;7.57;;;12.60;51.40;;;;;;5058651;28;46361;-68
2022/08/09 02:24:49;;;;;;;8.77;6.97;;;12.60;50.90;;;;;;5059039;28;46299;-68
2022/08/09 02:27:18;;;;;;;9.40;8.33;;;12.60;51.80;;;;;;5058647;28;46488;-67
2022/08/09 02:29:49;;;;;;;11.10;7.53;;;12.60;51.90;;;;;;5059520;28;46389;-67
2022/08/09 02:32:18;;;;;;;9.57;8.20;;;12.60;52.10;;;;;;5058707;28;46465;-67
2022/08/09 02:34:48;;;;;;;10.00;8.23;;;12.60;51.10;;;;;;5058863;28;46402;-67
2022/08/09 02:37:17;;;;;;;10.00;8.37;;;12.60;52.10;;;;;;5057734;28;45863;-67
2022/08/09 02:39:57;;;;;;;10.50;7.20;;;12.60;52.10;;;;;;5059416;28;47123;-67
2022/08/09 02:42:29;;;;;;;9.10;7.00;;;12.60;52.20;;;;;;5057395;28;46465;-67
2022/08/09 02:45:02;;;;;;;9.53;7.20;;;12.60;51.40;;;;;;5056944;28;46467;-67
2022/08/09 02:47:30;;;;;;;9.10;7.27;;;12.60;52.40;;;;;;5061771;28;46359;-66
2022/08/09 02:50:20;;;;;;;7.90;6.63;;;12.50;52.40;;;;;;5060555;28;47073;-68
2022/08/09 02:52:53;;;;;;;7.30;6.10;;;12.50;52.70;;;;;;5058566;28;46369;-68
2022/08/09 02:55:22;;;;;;;9.10;6.37;;;12.40;52.60;;;;;;5059817;28;46544;-68
2022/08/09 02:57:50;;;;;;;9.00;5.87;;;12.40;52.70;;;;;;5058759;28;46472;-68
2022/08/09 03:00:16;;;;;;;11.23;6.90;;;12.40;52.70;;;;;;5060918;28;48075;-68
2022/08/09 03:02:46;;;;;;;8.03;6.30;;;12.30;52.60;;;;;;5060799;28;46283;-68
2022/08/09 03:05:12;;;;;;;9.33;6.90;;;12.40;52.00;;;;;;5055934;28;46383;-67
2022/08/09 03:07:39;;;;;;;8.40;7.20;;;12.40;52.80;;;;;;5056369;28;46584;-68
2022/08/09 03:10:05;;;;;;;10.50;6.80;;;12.40;52.70;;;;;;5060384;28;47084;-68
2022/08/09 03:12:34;;;;;;;8.40;6.80;;;12.30;52.70;;;;;;5058990;28;46410;-68
2022/08/09 03:15:01;;;;;;;7.30;6.60;;;12.30;52.90;;;;;;5059478;28;45836;-71
2022/08/09 03:17:28;;;;;;;8.83;7.30;;;12.30;53.00;;;;;;5053368;28;46432;-68
2022/08/09 03:19:59;;;;;;;7.53;6.17;;;12.30;52.90;;;;;;5059119;28;46130;-67
2022/08/09 03:22:27;;;;;;;9.40;7.20;;;12.20;53.20;;;;;;5056945;28;46469;-69
2022/08/09 03:24:53;;;;;;;8.47;6.00;;;12.20;53.30;;;;;;5060414;28;46519;-69
2022/08/09 03:27:19;;;;;;;9.10;5.90;;;12.20;53.50;;;;;;5058169;28;46357;-69
2022/08/09 03:29:45;;;;;;;7.30;6.07;;;12.10;53.60;;;;;;5058832;28;48121;-68
2022/08/09 03:32:12;;;;;;;13.43;6.30;;;12.10;53.60;;;;;;5057399;28;46527;-69
2022/08/09 03:34:38;;;;;;;9.80;6.57;;;12.10;53.60;;;;;;5056107;28;46517;-68
2022/08/09 03:37:03;;;;;;;7.93;5.90;;;12.10;53.60;;;;;;5057327;28;46476;-68
2022/08/09 03:39:29;;;;;;;6.30;4.97;;;12.10;53.60;;;;;;5060491;28;47255;-68
2022/08/09 03:41:55;;;;;;;7.53;6.00;;;12.10;53.60;;;;;;5058037;28;46480;-68
2022/08/09 03:44:21;;;;;;;8.20;5.30;;;12.10;53.60;;;;;;5058727;28;46314;-69
2022/08/09 03:46:48;;;;;;;6.97;5.50;;;12.10;53.60;;;;;;5057653;28;46477;-69
2022/08/09 03:49:15;;;;;;;8.80;5.80;;;12.00;53.50;;;;;;5058468;28;46392;-68
2022/08/09 03:51:42;;;;;;;6.80;5.87;;;12.00;53.50;;;;;;5057715;28;46410;-67
2022/08/09 03:54:09;;;;;;;8.53;6.10;;;11.90;52.30;;;;;;5057460;28;46185;-68
2022/08/09 03:56:35;;;;;;;8.47;5.90;;;11.90;53.40;;;;;;5059014;28;46525;-68
2022/08/09 03:59:01;;;;;;;8.80;6.60;;;11.90;54.60;;;;;;5059396;28;46573;-67
2022/08/09 04:01:28;;;;;;;10.00;6.70;;;11.80;53.30;;;;;;5057735;28;46728;-66
2022/08/09 04:03:55;;;;;;;10.73;6.87;;;11.90;53.40;;;;;;5057360;28;46460;-67
2022/08/09 04:06:20;;;;;;;9.40;6.87;;;11.90;53.40;;;;;;5055795;28;46899;-66
2022/08/09 04:08:46;;;;;;;8.17;6.30;;;11.90;53.40;;;;;;5057091;28;48081;-67
2022/08/09 04:11:12;;;;;;;21.13;9.30;;;11.90;53.60;;;;;;5058505;28;46461;-67
2022/08/09 04:13:37;;;;;;;14.47;9.40;;;12.00;53.50;;;;;;5059220;28;46348;-66
2022/08/09 04:16:03;;;;;;;17.90;12.93;;;12.20;53.60;;;;;;5058332;28;46453;-67
2022/08/09 04:18:29;;;;;;;15.80;10.77;;;12.40;53.30;;;;;;5058469;28;46505;-66
2022/08/09 04:20:54;;;;;;;14.27;10.97;;;12.60;52.90;;;;;;5058316;28;46389;-67
2022/08/09 04:23:20;;;;;;;16.67;10.27;;;12.90;53.00;;;;;;5062064;28;46702;-67
2022/08/09 04:25:46;;;;;;;13.90;10.63;;;13.00;52.70;;;;;;5059100;28;45816;-67
2022/08/09 04:28:11;;;;;;;14.73;10.80;;;13.20;52.70;;;;;;5058578;28;46911;-67
2022/08/09 04:30:37;;;;;;;10.17;8.93;;;13.30;52.60;;;;;;5061168;28;46356;-67
2022/08/09 04:33:03;;;;;;;13.83;9.23;;;13.50;52.70;;;;;;5062454;28;46336;-67
2022/08/09 04:35:28;;;;;;;12.77;9.27;;;13.60;52.70;;;;;;5064391;28;46597;-67
2022/08/09 04:37:54;;;;;;;11.23;9.07;;;13.70;52.70;;;;;;5062927;28;46296;-67
2022/08/09 04:40:20;;;;;;;12.07;9.23;;;13.80;52.60;;;;;;5061389;28;46367;-66
2022/08/09 04:42:46;;;;;;;11.63;8.23;;;13.90;52.60;;;;;;5060671;28;46464;-67
2022/08/09 04:45:11;;;;;;;16.10;9.00;;;14.00;52.60;;;;;;5060470;28;46529;-67
2022/08/09 04:47:37;;;;;;;12.00;8.03;;;14.10;52.70;;;;;;5063758;28;46417;-67
2022/08/09 04:50:03;;;;;;;13.73;8.93;;;14.10;52.50;;;;;;5063074;28;46434;-67
2022/08/09 04:52:29;;;;;;;10.70;8.60;;;14.20;52.50;;;;;;5063208;28;46441;-67
2022/08/09 04:54:56;;;;;;;10.50;8.40;;;14.30;52.50;;;;;;5063164;28;46388;-67
2022/08/09 04:57:22;;;;;;;11.33;8.37;;;14.40;52.60;;;;;;5062365;28;46369;-67
2022/08/09 04:59:48;;;;;;;10.17;8.20;;;14.40;52.70;;;;;;5063190;28;46642;-67
2022/08/09 05:02:13;;;;;;;12.77;8.63;;;14.50;53.00;;;;;;5062304;28;46509;-67
2022/08/09 05:04:39;;;;;;;9.70;6.60;;;14.80;52.20;;;;;;5060582;28;46374;-67
2022/08/09 05:07:05;;;;;;;7.80;6.23;;;15.90;51.70;;;;;;5063276;28;46422;-67
2022/08/09 05:09:30;;;;;;;7.50;6.10;;;17.00;50.10;;;;;;5061759;28;46440;-67
2022/08/09 05:11:57;;;;;;;7.03;5.20;;;17.80;47.70;;;;;;5062061;28;46649;-67
2022/08/09 05:14:23;;;;;;;6.80;4.80;;;18.40;46.20;;;;;;5061814;28;46620;-68
2022/08/09 05:16:48;;;;;;;7.77;4.73;;;19.10;45.40;;;;;;5059458;28;46439;-68
2022/08/09 05:19:16;;;;;;;8.17;4.93;;;19.60;41.60;;;;;;5062223;28;46642;-68
2022/08/09 05:21:43;;;;;;;6.07;4.57;;;20.20;39.80;;;;;;5062196;28;46400;-68
2022/08/09 05:24:08;;;;;;;5.83;4.23;;;21.10;34.90;;;;;;5062170;28;46161;-68
2022/08/09 05:26:36;;;;;;;7.70;4.50;;;21.10;35.30;;;;;;5060085;28;47023;-68
2022/08/09 05:29:01;;;;;;;11.20;4.43;;;21.30;35.20;;;;;;5061171;28;46365;-68
2022/08/09 05:31:27;;;;;;;7.50;5.13;;;21.90;32.60;;;;;;5061137;28;46641;-68
2022/08/09 05:33:53;;;;;;;5.90;4.00;;;22.30;31.10;;;;;;5060223;28;46579;-68
2022/08/09 05:36:18;;;;;;;6.67;4.10;;;22.60;29.90;;;;;;5062288;28;46495;-68
2022/08/09 05:38:44;;;;;;;6.10;3.47;;;22.90;28.40;;;;;;5061013;28;46764;-68
2022/08/09 05:41:09;;;;;;;5.30;4.13;;;23.40;27.30;;;;;;5060729;28;46367;-68
2022/08/09 05:43:35;;;;;;;9.00;4.20;;;23.80;27.10;;;;;;5062703;28;46433;-68
2022/08/09 05:46:01;;;;;;;6.10;3.90;;;24.20;25.70;;;;;;5061829;28;46251;-69
2022/08/09 05:48:28;;;;;;;8.60;3.97;;;24.60;25.60;;;;;;5059523;28;46400;-68
2022/08/09 05:50:54;;;;;;;7.20;3.30;;;24.70;24.50;;;;;;5062048;28;46348;-69
2022/08/09 05:53:19;;;;;;;6.37;3.83;;;24.90;23.50;;;;;;5064383;28;46407;-68
2022/08/09 05:55:45;;;;;;;12.07;4.07;;;25.20;23.10;;;;;;5062225;28;46383;-69
2022/08/09 05:58:11;;;;;;;5.30;3.93;;;25.70;21.90;;;;;;5058709;28;46413;-68
2022/08/09 06:00:36;;;;;;;4.20;3.43;;;25.60;21.80;;;;;;5061589;28;46430;-69
2022/08/09 06:03:03;;;;;;;5.37;3.90;;;25.70;20.80;;;;;;5063949;28;46924;-69
2022/08/09 06:05:31;;;;;;;7.43;3.63;;;25.80;20.70;;;;;;5061630;28;46369;-68
2022/08/09 06:07:57;;;;;;;4.73;3.30;;;25.80;19.80;;;;;;5060583;28;46636;-69
2022/08/09 06:10:36;;;;;;;4.67;3.40;;;26.20;18.40;;;;;;5060918;28;46337;-68
2022/08/09 06:13:03;;;;;;;4.80;3.30;;;26.00;19.00;;;;;;5061654;28;46351;-69
2022/08/09 06:15:29;;;;;;;6.23;3.80;;;25.90;19.20;;;;;;5059256;28;45990;-68
2022/08/09 06:17:55;;;;;;;4.20;3.40;;;26.10;18.50;;;;;;5060499;28;45809;-68
2022/08/09 06:20:20;;;;;;;7.33;3.30;;;26.40;17.60;;;;;;5061363;28;46436;-69
2022/08/09 06:22:46;;;;;;;6.43;3.37;;;26.70;16.90;;;;;;5062494;28;46409;-69
2022/08/09 06:25:11;;;;;;;5.70;3.47;;;26.70;16.30;;;;;;5060783;28;47028;-69
2022/08/09 06:27:37;;;;;;;7.20;3.60;;;26.40;16.50;;;;;;5060640;28;46379;-69
2022/08/09 06:30:03;;;;;;;5.57;3.23;;;26.30;16.00;;;;;;5061318;28;46307;-69
2022/08/09 06:32:29;;;;;;;4.80;2.97;;;25.60;17.90;;;;;;5059994;28;46295;-68
2022/08/09 06:34:54;;;;;;;5.77;3.23;;;24.20;20.90;;;;;;5060286;28;46430;-68
2022/08/09 06:37:20;;;;;;;7.13;3.23;;;23.50;23.10;;;;;;5061637;28;46419;-69
2022/08/09 06:39:45;;;;;;;7.40;2.83;;;22.80;24.40;;;;;;5060589;28;46436;-68
2022/08/09 06:42:11;;;;;;;6.10;2.93;;;22.60;24.30;;;;;;5061979;28;46491;-68
2022/08/09 06:44:36;;;;;;;6.60;3.80;;;23.60;20.70;;;;;;5064299;28;47279;-66
2022/08/09 06:47:02;;;;;;;4.80;2.93;;;24.50;18.10;;;;;;5063447;28;46394;-68
2022/08/09 06:49:29;;;;;;;4.90;3.03;;;25.30;16.10;;;;;;5061140;28;46434;-69
2022/08/09 06:51:54;;;;;;;5.53;3.40;;;25.30;15.30;;;;;;5060889;28;45873;-69
2022/08/09 06:54:20;;;;;;;9.60;3.60;;;25.40;15.10;;;;;;5058542;28;46437;-68
2022/08/09 06:56:45;;;;;;;5.53;2.90;;;25.50;15.10;;;;;;5058929;28;45840;-68
2022/08/09 06:59:11;;;;;;;6.50;3.17;;;25.60;14.60;;;;;;5059261;28;46310;-69
2022/08/09 07:01:37;;;;;;;6.73;3.40;;;25.90;13.70;;;;;;5061044;28;46263;-68
2022/08/09 07:04:02;;;;;;;5.20;3.30;;;26.10;12.00;;;;;;5061166;28;47047;-68
2022/08/09 07:06:28;;;;;;;4.93;3.23;;;26.10;12.90;;;;;;5058952;28;46393;-68
2022/08/09 07:08:54;;;;;;;6.00;3.10;;;25.00;14.90;;;;;;5060122;28;46294;-68
2022/08/09 07:11:19;;;;;;;6.63;3.17;;;23.50;18.40;;;;;;5060870;28;46415;-68
2022/08/09 07:13:45;;;;;;;6.23;3.10;;;22.80;20.50;;;;;;5067408;28;46400;-68
2022/08/09 07:16:10;;;;;;;5.67;3.23;;;22.10;21.20;;;;;;5064955;28;46443;-68
2022/08/09 07:18:36;;;;;;;7.83;3.60;;;21.90;23.10;;;;;;5058846;28;46417;-68
2022/08/09 07:21:01;;;;;;;7.30;3.30;;;21.80;23.70;;;;;;5061275;28;46819;-68
2022/08/09 07:23:27;;;;;;;6.23;3.10;;;21.70;23.60;;;;;;5060217;28;46467;-68
2022/08/09 07:25:52;;;;;;;7.77;3.57;;;21.80;23.90;;;;;;5059005;28;46443;-68
2022/08/09 07:28:19;;;;;;;8.90;3.73;;;21.80;23.90;;;;;;5060167;28;46453;-68
2022/08/09 07:30:45;;;;;;;5.50;3.17;;;21.80;24.30;;;;;;5059234;28;46431;-69
2022/08/09 07:33:11;;;;;;;7.40;3.47;;;21.70;24.50;;;;;;5059393;28;46461;-68
2022/08/09 07:35:37;;;;;;;5.80;3.40;;;21.80;24.20;;;;;;5059713;28;45809;-68
2022/08/09 07:38:02;;;;;;;6.30;3.10;;;21.90;24.10;;;;;;5059131;28;46330;-68
2022/08/09 07:40:28;;;;;;;4.73;3.10;;;21.90;24.00;;;;;;5061173;28;46433;-68
2022/08/09 07:42:58;;;;;;;8.17;3.43;;;22.00;23.90;;;;;;5060588;28;46401;-68
2022/08/09 07:45:29;;;;;;;6.10;2.90;;;22.10;23.90;;;;;;5060469;28;46837;-68
2022/08/09 07:47:56;;;;;;;6.20;2.87;;;22.20;24.00;;;;;;5057749;28;46461;-68
2022/08/09 07:50:23;;;;;;;4.67;2.70;;;22.20;23.70;;;;;;5060291;28;46380;-68
2022/08/09 07:52:49;;;;;;;8.07;3.47;;;22.30;23.30;;;;;;5057984;28;49079;-68
2022/08/09 07:55:15;;;;;;;6.40;2.93;;;22.40;23.30;;;;;;5059364;28;46370;-68
2022/08/09 07:57:41;;;;;;;7.70;2.80;;;22.40;22.40;;;;;;5059847;28;46448;-68
2022/08/09 08:00:07;;;;;;;7.77;2.37;;;22.40;21.90;;;;;;5058957;28;46356;-67
2022/08/09 08:02:32;;;;;;;9.47;2.90;;;22.60;21.80;;;;;;5059986;28;46405;-68
2022/08/09 08:04:58;;;;;;;4.90;2.30;;;22.60;21.50;;;;;;5062275;28;46283;-69
2022/08/09 08:07:24;;;;;;;11.70;3.07;;;22.70;21.10;;;;;;5063268;28;46346;-68
2022/08/09 08:09:51;;;;;;;5.83;2.77;;;22.70;20.90;;;;;;5064326;28;46520;-68
2022/08/09 08:12:18;;;;;;;4.20;2.60;;;22.60;20.60;;;;;;5063360;28;46366;-67
2022/08/09 08:14:43;;;;;;;7.20;2.20;;;22.70;20.60;;;;;;5063252;28;46442;-68
2022/08/09 08:17:09;;;;;;;5.97;2.27;;;22.80;20.40;;;;;;5063114;28;46386;-68
2022/08/09 08:19:35;;;;;;;6.37;2.60;;;22.70;20.00;;;;;;5064794;28;46415;-68
2022/08/09 08:22:02;;;;;;;5.23;2.57;;;22.80;19.50;;;;;;5063288;28;47611;-68
2022/08/09 08:24:27;;;;;;;5.63;2.20;;;22.80;19.50;;;;;;5062906;28;46294;-67
2022/08/09 08:26:53;;;;;;;4.00;2.13;;;23.10;19.30;;;;;;5062440;28;46311;-68
2022/08/09 08:29:19;;;;;;;4.60;2.23;;;23.20;18.70;;;;;;5064451;28;46608;-68
2022/08/09 08:31:45;;;;;;;4.10;2.20;;;23.30;18.80;;;;;;5062830;28;48069;-68
2022/08/09 08:34:11;;;;;;;4.90;2.57;;;23.40;17.00;;;;;;5063127;28;46537;-69
2022/08/09 08:36:36;;;;;;;6.40;2.43;;;23.40;17.90;;;;;;5060461;28;46396;-68
2022/08/09 08:39:03;;;;;;;9.53;2.30;;;23.50;17.80;;;;;;5062007;28;46366;-69
2022/08/09 08:41:29;;;;;;;7.20;2.13;;;23.40;16.70;;;;;;5060477;28;46558;-68
2022/08/09 08:43:56;;;;;;;4.60;2.03;;;23.40;16.30;;;;;;5063069;28;46423;-69
2022/08/09 08:46:28;;;;;;;5.90;2.10;;;23.40;16.60;;;;;;5062856;28;46380;-68
2022/08/09 08:48:54;;;;;;;5.13;2.60;;;23.50;16.70;;;;;;5062966;28;46828;-68
2022/08/09 08:51:22;;;;;;;8.37;2.50;;;23.60;16.90;;;;;;5062181;28;46491;-69
2022/08/09 08:53:51;;;;;;;4.30;2.30;;;23.60;16.60;;;;;;5062568;28;46374;-68
2022/08/09 08:56:18;;;;;;;4.77;2.10;;;23.50;16.40;;;;;;5062240;28;46524;-69
2022/08/09 08:58:44;;;;;;;3.73;2.20;;;23.40;16.90;;;;;;5063086;28;46607;-68
2022/08/09 09:01:10;;;;;;;7.10;2.33;;;23.60;16.60;;;;;;5062456;28;47324;-68
2022/08/09 09:03:36;;;;;;;8.73;1.80;;;23.70;16.60;;;;;;5061548;28;46383;-68
2022/08/09 09:06:02;;;;;;;5.00;2.03;;;23.70;16.10;;;;;;5062617;28;46422;-68
2022/08/09 09:08:33;;;;;;;3.87;1.80;;;23.80;16.10;;;;;;5061480;28;46373;-68
2022/08/09 09:11:04;;;;;;;8.90;2.70;;;23.90;15.90;;;;;;5062316;28;46651;-68
2022/08/09 09:13:41;;;;;;;4.87;2.33;;;24.00;15.50;;;;;;5063183;28;46356;-68
2022/08/09 09:16:08;;;;;;;6.63;2.20;;;23.90;15.10;;;;;;5061603;28;46480;-69
2022/08/09 09:18:34;;;;;;;4.83;2.17;;;23.80;15.00;;;;;;5060939;28;46429;-68
2022/08/09 09:20:59;;;;;;;3.10;2.20;;;24.00;15.20;;;;;;5062513;28;46048;-68
2022/08/09 09:23:43;;;;;;;4.83;2.37;;;24.10;15.20;;;;;;5061663;28;46443;-68
2022/08/09 09:26:10;;;;;;;4.80;2.17;;;24.20;15.20;;;;;;5060387;28;46417;-68
2022/08/09 09:28:36;;;;;;;5.80;2.03;;;24.20;15.00;;;;;;5063080;28;46342;-68
2022/08/09 09:31:04;;;;;;;3.67;1.97;;;24.10;14.90;;;;;;5061783;28;46599;-68
2022/08/09 09:33:35;;;;;;;5.20;2.37;;;24.00;14.30;;;;;;5061858;28;46267;-69
2022/08/09 09:36:08;;;;;;;7.00;2.27;;;23.90;14.10;;;;;;5060366;28;46430;-68
2022/08/09 09:38:48;;;;;;;7.47;2.40;;;23.80;14.00;;;;;;5061697;28;46385;-68
2022/08/09 09:41:26;;;;;;;4.80;2.27;;;23.70;14.00;;;;;;5059612;28;46839;-68
2022/08/09 09:43:52;;;;;;;4.30;2.00;;;23.90;14.10;;;;;;5060309;28;46421;-68
2022/08/09 09:46:18;;;;;;;4.73;2.00;;;24.10;14.30;;;;;;5061383;28;46509;-68
2022/08/09 09:49:06;;;;;;;14.63;2.60;;;24.20;13.10;;;;;;5062050;28;46456;-68
2022/08/09 09:51:34;;;;;;;6.20;2.80;;;24.30;12.80;;;;;;5060785;28;47203;-68
2022/08/09 09:54:11;;;;;;;5.63;2.27;;;24.40;11.50;;;;;;5063629;28;46381;-68
2022/08/09 09:56:43;;;;;;;5.10;2.07;;;24.40;12.30;;;;;;5060914;28;46528;-69
2022/08/09 09:59:11;;;;;;;4.13;2.00;;;24.60;12.10;;;;;;5060906;28;46545;-68
2022/08/09 10:01:38;;;;;;;4.33;1.70;;;24.50;11.70;;;;;;5059898;28;47293;-68
2022/08/09 10:04:13;;;;;;;4.33;2.10;;;24.50;10.70;;;;;;5061661;28;46605;-68
2022/08/09 10:06:41;;;;;;;6.27;2.10;;;24.50;11.60;;;;;;5059283;28;45887;-69
2022/08/09 10:09:11;;;;;;;6.17;1.93;;;24.20;11.30;;;;;;5060394;28;46260;-68
2022/08/09 10:11:37;;;;;;;4.07;1.90;;;24.20;11.50;;;;;;5059848;28;46406;-68
2022/08/09 10:14:03;;;;;;;6.87;2.17;;;24.10;10.40;;;;;;5058474;28;46338;-68
2022/08/09 10:16:36;;;;;;;5.77;1.73;;;24.00;11.30;;;;;;5061204;28;46479;-68
2022/08/09 10:19:07;;;;;;;2.90;1.83;;;24.20;11.50;;;;;;5061764;28;46298;-68
2022/08/09 10:21:34;;;;;;;3.67;1.70;;;24.40;11.50;;;;;;5060189;28;48010;-69
2022/08/09 10:24:02;;;;;;;2.43;1.57;;;24.50;9.70;;;;;;5063710;28;46405;-68
2022/08/09 10:26:29;;;;;;;3.90;1.67;;;24.40;10.60;;;;;;5057347;28;46382;-69
2022/08/09 10:28:56;;;;;;;5.73;2.13;;;24.40;10.90;;;;;;5060481;28;46493;-69
2022/08/09 10:31:22;;;;;;;6.93;2.10;;;24.50;10.80;;;;;;5060694;28;47240;-69
2022/08/09 10:33:49;;;;;;;4.80;1.90;;;24.70;10.90;;;;;;5057606;28;46399;-68
2022/08/09 10:36:15;;;;;;;9.47;2.30;;;24.70;10.50;;;;;;5059428;28;46321;-69
2022/08/09 10:38:44;;;;;;;5.53;2.07;;;24.80;10.90;;;;;;5059706;28;46568;-69
2022/08/09 10:41:09;;;;;;;4.37;2.10;;;24.80;10.60;;;;;;5059263;28;47377;-68
2022/08/09 10:43:36;;;;;;;6.73;1.80;;;24.60;10.40;;;;;;5061158;28;46424;-69
2022/08/09 10:46:22;;;;;;;3.80;2.10;;;24.60;10.40;;;;;;5061243;28;46398;-69
2022/08/09 10:49:28;;;;;;;6.33;2.03;;;24.40;10.30;;;;;;5060304;28;46293;-68
2022/08/09 10:52:08;;;;;;;4.80;2.40;;;24.50;10.50;;;;;;5060135;28;47252;-68
2022/08/09 10:54:34;;;;;;;4.47;2.00;;;24.50;10.70;;;;;;5060367;28;46566;-69
2022/08/09 10:57:08;;;;;;;7.83;2.20;;;24.50;10.70;;;;;;5060810;28;46464;-69
2022/08/09 10:59:36;;;;;;;5.80;1.83;;;24.50;10.20;;;;;;5060489;28;46521;-68
2022/08/09 11:02:04;;;;;;;5.90;1.80;;;24.50;10.20;;;;;;5060374;28;46284;-69
2022/08/09 11:04:31;;;;;;;5.57;1.80;;;24.50;10.50;;;;;;5060903;28;46334;-68
2022/08/09 11:06:59;;;;;;;4.20;1.80;;;24.70;10.50;;;;;;5059334;28;46373;-68
2022/08/09 11:09:37;;;;;;;4.63;1.87;;;24.60;10.20;;;;;;5058410;28;46417;-68
2022/08/09 11:12:18;;;;;;;7.00;1.90;;;24.60;10.20;;;;;;5058929;28;47067;-68
2022/08/09 11:14:53;;;;;;;6.40;2.27;;;24.70;10.20;;;;;;5057653;28;45787;-69
2022/08/09 11:17:19;;;;;;;5.53;2.10;;;24.80;10.30;;;;;;5059041;28;46478;-69
2022/08/09 11:20:21;;;;;;;4.57;1.90;;;24.80;10.20;;;;;;5059240;28;46382;-66
2022/08/09 11:22:47;;;;;;;5.10;2.03;;;24.80;10.40;;;;;;5054389;28;46477;-71
2022/08/09 11:25:20;;;;;;;7.23;1.70;;;24.90;10.20;;;;;;5060003;28;45847;-69
2022/08/09 11:27:51;;;;;;;4.27;2.03;;;24.70;10.30;;;;;;5056940;28;46461;-73
2022/08/09 11:30:22;;;;;;;3.20;1.73;;;25.00;11.70;;;;;;5058334;28;46388;-72
2022/08/09 11:33:13;;;;;;;8.63;2.10;;;25.20;10.40;;;;;;5058091;28;47118;-70
2022/08/09 11:35:41;;;;;;;3.97;1.80;;;25.00;9.90;;;;;;5059156;28;46768;-72
2022/08/09 11:38:28;;;;;;;2.90;1.90;;;25.00;10.10;;;;;;5061722;28;45892;-71
2022/08/09 11:40:55;;;;;;;5.27;2.07;;;25.10;10.10;;;;;;5063705;28;46783;-70
2022/08/09 11:43:26;;;;;;;3.60;1.97;;;25.10;10.30;;;;;;5062213;28;47141;-72
2022/08/09 11:45:58;;;;;;;4.40;1.93;;;25.20;10.20;;;;;;5060371;28;46529;-72
2022/08/09 11:48:28;;;;;;;6.37;2.33;;;25.30;10.10;;;;;;5062412;28;46476;-72
2022/08/09 11:50:56;;;;;;;5.50;1.90;;;25.30;9.70;;;;;;5062785;28;46465;-72
2022/08/09 11:53:36;;;;;;;3.10;1.90;;;25.30;9.30;;;;;;5062268;28;46373;-71
2022/08/09 11:56:14;;;;;;;8.50;2.33;;;25.40;9.40;;;;;;5061661;28;46295;-72
2022/08/09 11:58:57;;;;;;;6.20;2.10;;;25.40;9.20;;;;;;5061092;28;46568;-70
2022/08/09 12:01:36;;;;;;;4.40;1.97;;;25.40;9.10;;;;;;5062766;28;45780;-71
2022/08/09 12:04:10;;;;;;;4.70;2.00;;;25.30;8.60;;;;;;5061307;28;46448;-72
2022/08/09 12:06:36;;;;;;;3.70;2.10;;;25.30;9.40;;;;;;5060593;28;46304;-70
2022/08/09 12:09:08;;;;;;;4.73;1.90;;;25.40;9.40;;;;;;5066129;28;46354;-72
2022/08/09 12:11:35;;;;;;;8.03;1.70;;;25.50;9.30;;;;;;5062375;28;45867;-71
2022/08/09 12:14:06;;;;;;;3.03;1.70;;;25.60;8.10;;;;;;5062396;28;46976;-70
2022/08/09 12:16:37;;;;;;;4.20;2.20;;;25.50;8.90;;;;;;5058835;28;46464;-71
2022/08/09 12:19:05;;;;;;;3.33;1.80;;;25.50;8.60;;;;;;5063207;28;46395;-70
2022/08/09 12:21:42;;;;;;;5.20;2.20;;;25.30;8.90;;;;;;5064481;28;46466;-70
2022/08/09 12:24:09;;;;;;;4.60;2.20;;;25.40;8.20;;;;;;5060468;28;46416;-71
2022/08/09 12:26:49;;;;;;;4.03;1.97;;;25.40;9.10;;;;;;5061505;28;46440;-72
2022/08/09 12:29:20;;;;;;;4.17;1.87;;;25.40;9.20;;;;;;5052276;28;46390;-72
2022/08/09 12:31:48;;;;;;;5.30;2.33;;;25.50;9.30;;;;;;5062987;28;46388;-72
2022/08/09 12:34:14;;;;;;;5.93;1.90;;;25.60;7.90;;;;;;5062754;28;46940;-72
2022/08/09 12:36:54;;;;;;;10.67;2.07;;;25.60;8.70;;;;;;5059951;28;46422;-73
2022/08/09 12:39:21;;;;;;;4.60;2.20;;;25.70;8.90;;;;;;5058874;28;46432;-72
2022/08/09 12:41:47;;;;;;;4.00;2.03;;;25.50;9.00;;;;;;5061827;28;46574;-71
2022/08/09 12:44:13;;;;;;;9.50;2.47;;;25.60;8.50;;;;;;5061775;28;47578;-70
2022/08/09 12:46:43;;;;;;;9.37;2.27;;;25.60;9.30;;;;;;5060521;28;45855;-71
2022/08/09 12:49:10;;;;;;;3.90;1.90;;;25.50;9.10;;;;;;5061742;28;46451;-71
2022/08/09 12:51:36;;;;;;;5.40;2.10;;;25.60;9.00;;;;;;5063335;28;46510;-70